createdAt,value
2019-05-28T05:13:01.807Z,10.60
2019-05-28T05:15:30.919Z,9.10
2019-05-28T05:18:00.150Z,8.80
2019-05-28T05:20:29.242Z,4.57
2019-05-28T05:22:57.744Z,2.63
2019-05-28T05:25:26.746Z,3.07
2019-05-28T05:27:55.582Z,3.53
2019-05-28T05:30:24.407Z,3.40
2019-05-28T05:32:52.879Z,3.30
2019-05-28T05:35:21.598Z,3.53
2019-05-28T05:37:50.666Z,3.60
2019-05-28T05:40:19.139Z,3.73
2019-05-28T05:42:47.989Z,3.70
2019-05-28T05:45:16.470Z,3.00
2019-05-28T05:47:45.283Z,2.70
2019-05-28T05:50:13.822Z,2.50
2019-05-28T05:52:42.749Z,2.23
2019-05-28T05:55:11.510Z,2.00
2019-05-28T05:57:40.567Z,2.00
2019-05-28T06:00:11.504Z,2.30
2019-05-28T06:02:37.543Z,1.87
2019-05-28T06:05:06.198Z,1.77
2019-05-28T06:07:35.339Z,1.83
2019-05-28T06:10:05.084Z,1.53
2019-05-28T06:12:33.903Z,1.90
2019-05-28T06:15:03.020Z,2.20
2019-05-28T06:17:31.444Z,2.20
2019-05-28T06:20:00.242Z,2.50
2019-05-28T06:22:29.123Z,2.20
2019-05-28T06:24:57.817Z,2.43
2019-05-28T06:27:26.561Z,3.10
2019-05-28T06:29:55.638Z,2.87
2019-05-28T06:32:24.184Z,3.60
2019-05-28T06:34:52.600Z,3.27
2019-05-28T06:37:21.325Z,3.77
2019-05-28T06:39:49.843Z,3.93
2019-05-28T06:42:18.574Z,4.10
2019-05-28T06:44:47.334Z,4.10
2019-05-28T06:47:16.239Z,4.43
2019-05-28T06:49:44.716Z,4.10
2019-05-28T06:52:13.550Z,4.30
2019-05-28T06:54:42.029Z,4.37
2019-05-28T06:57:22.205Z,4.67
2019-05-28T06:59:39.123Z,4.23
2019-05-28T07:02:07.716Z,4.00
2019-05-28T07:04:36.815Z,4.33
2019-05-28T07:07:05.329Z,4.20
2019-05-28T07:09:33.845Z,4.80
2019-05-28T07:12:02.980Z,4.40
2019-05-28T07:14:31.477Z,4.00
2019-05-28T07:17:00.736Z,3.17
2019-05-28T07:19:29.203Z,2.77
2019-05-28T07:21:57.946Z,3.33
2019-05-28T07:24:26.707Z,3.23
2019-05-28T07:26:55.802Z,3.00
2019-05-28T07:29:24.266Z,3.33
2019-05-28T07:31:53.110Z,3.37
2019-05-28T07:34:30.642Z,3.10
2019-05-28T07:36:50.047Z,2.90
2019-05-28T07:39:18.537Z,3.10
2019-05-28T07:41:47.287Z,2.77
2019-05-28T07:44:16.131Z,2.00
2019-05-28T07:46:44.896Z,2.00
2019-05-28T07:49:13.767Z,1.70
2019-05-28T07:51:42.211Z,1.60
2019-05-28T07:54:11.062Z,1.40
2019-05-28T07:56:40.145Z,1.50
2019-05-28T07:59:08.681Z,1.87
2019-05-28T08:01:37.687Z,2.20
2019-05-28T08:04:06.229Z,1.50
2019-05-28T08:06:35.216Z,2.10
2019-05-28T08:09:04.649Z,2.03
2019-05-28T08:11:33.494Z,2.20
2019-05-28T08:14:01.993Z,1.90
2019-05-28T08:16:32.290Z,2.10
2019-05-28T08:19:02.831Z,2.03
2019-05-28T08:21:32.374Z,2.10
2019-05-28T08:24:00.393Z,3.03
2019-05-28T08:26:29.231Z,2.23
2019-05-28T08:28:59.726Z,2.30
2019-05-28T08:31:26.442Z,1.83
2019-05-28T08:33:55.532Z,2.00
2019-05-28T08:36:24.169Z,2.30
2019-05-28T08:38:52.647Z,2.33
2019-05-28T08:41:21.428Z,2.30
2019-05-28T08:43:50.270Z,2.33
2019-05-28T08:46:19.015Z,3.37
2019-05-28T08:48:47.486Z,1.87
2019-05-28T08:51:16.579Z,2.60
2019-05-28T08:53:45.322Z,2.50
2019-05-28T08:56:13.802Z,2.13
2019-05-28T08:58:42.282Z,2.10
2019-05-28T09:01:11.209Z,2.30
2019-05-28T09:03:39.682Z,2.17
2019-05-28T09:06:08.500Z,1.77
2019-05-28T09:08:39.602Z,2.00
2019-05-28T09:11:05.846Z,2.53
2019-05-28T09:13:34.265Z,2.00
2019-05-28T09:16:02.775Z,2.00
2019-05-28T09:18:31.522Z,2.00
2019-05-28T09:21:00.393Z,1.97
2019-05-28T09:23:29.136Z,1.87
2019-05-28T09:25:57.619Z,2.30
2019-05-28T09:28:30.686Z,1.97
2019-05-28T09:30:54.855Z,2.73
2019-05-28T09:33:23.338Z,5.23
2019-05-28T09:36:07.515Z,1.37
2019-05-28T09:38:20.791Z,1.50
2019-05-28T09:40:51.162Z,1.77
2019-05-28T09:43:18.372Z,1.57
2019-05-28T09:45:47.221Z,1.80
2019-05-28T09:48:15.681Z,2.20
2019-05-28T09:50:44.814Z,1.67
2019-05-28T09:53:13.390Z,1.50
2019-05-28T09:55:42.193Z,2.23
2019-05-28T09:58:11.042Z,2.90
2019-05-28T10:00:56.205Z,3.50
2019-05-28T10:03:08.623Z,3.43
2019-05-28T10:05:37.379Z,7.17
2019-05-28T10:08:05.890Z,1.70
2019-05-28T10:10:34.374Z,3.50
2019-05-28T10:13:03.219Z,2.27
2019-05-28T10:15:32.828Z,4.10
2019-05-28T10:18:00.898Z,2.03
2019-05-28T10:20:29.395Z,2.00
2019-05-28T10:22:58.215Z,2.07
2019-05-28T10:25:26.706Z,2.50
2019-05-28T10:28:00.723Z,2.53
2019-05-28T10:30:24.273Z,2.23
2019-05-28T10:32:52.750Z,2.30
2019-05-28T10:35:21.250Z,1.90
2019-05-28T10:37:50.140Z,1.80
2019-05-28T10:40:19.212Z,2.20
2019-05-28T10:42:47.724Z,1.97
2019-05-28T10:45:16.183Z,2.57
2019-05-28T10:47:44.833Z,2.43
2019-05-28T10:50:13.528Z,2.30
2019-05-28T10:52:42.039Z,2.47
2019-05-28T10:55:11.044Z,2.30
2019-05-28T10:57:39.687Z,2.50
2019-05-28T11:00:08.247Z,2.23
2019-05-28T11:02:37.318Z,2.50
2019-05-28T11:05:06.789Z,2.43
2019-05-28T11:07:35.274Z,2.80
2019-05-28T11:10:20.328Z,2.77
2019-05-28T11:12:32.921Z,2.63
2019-05-28T11:15:01.751Z,3.10
2019-05-28T11:17:30.531Z,2.87
2019-05-28T11:19:59.022Z,3.00
2019-05-28T11:22:27.882Z,3.07
2019-05-28T11:24:56.670Z,3.20
2019-05-28T11:27:25.798Z,1.60
2019-05-28T11:29:54.457Z,3.37
2019-05-28T11:32:22.934Z,3.07
2019-05-28T11:34:51.769Z,3.27
2019-05-28T11:37:20.262Z,3.57
2019-05-28T11:39:48.759Z,3.57
2019-05-28T11:42:17.620Z,2.80
2019-05-28T11:44:46.115Z,2.43
2019-05-28T11:47:14.966Z,3.37
2019-05-28T11:49:43.455Z,3.10
2019-05-28T11:52:12.510Z,3.47
2019-05-28T11:54:41.603Z,2.67
2019-05-28T11:57:10.718Z,3.30
2019-05-28T11:59:39.530Z,3.60
2019-05-28T12:02:08.014Z,4.27
2019-05-28T12:04:36.574Z,4.30
2019-05-28T12:07:05.789Z,3.07
2019-05-28T12:09:34.639Z,2.93
2019-05-28T12:12:03.469Z,2.20
2019-05-28T12:14:32.616Z,2.20
2019-05-28T12:17:01.425Z,2.50
2019-05-28T12:19:30.463Z,3.07
2019-05-28T12:21:58.952Z,3.13
2019-05-28T12:24:28.718Z,2.20
2019-05-28T12:26:56.469Z,2.30
2019-05-28T12:29:24.947Z,6.93
2019-05-28T12:31:53.518Z,2.40
2019-05-28T12:34:22.275Z,2.00
2019-05-28T12:36:50.765Z,2.63
2019-05-28T12:39:19.263Z,2.27
2019-05-28T12:42:01.015Z,3.43
2019-05-28T12:44:17.556Z,3.80
2019-05-28T12:46:45.135Z,4.13
2019-05-28T12:49:14.255Z,2.60
2019-05-28T12:51:43.392Z,2.67
2019-05-28T12:54:11.952Z,2.90
2019-05-28T12:56:40.405Z,2.60
2019-05-28T12:59:09.338Z,4.03
2019-05-28T13:01:38.756Z,3.30
2019-05-28T13:04:07.939Z,3.40
2019-05-28T13:06:36.480Z,2.87
2019-05-28T13:09:07.216Z,3.93
2019-05-28T13:11:36.063Z,2.73
2019-05-28T13:14:04.789Z,3.43
2019-05-28T13:16:33.610Z,3.47
2019-05-28T13:19:02.716Z,3.10
2019-05-28T13:21:31.469Z,3.80
2019-05-28T13:24:00.349Z,5.10
2019-05-28T13:26:29.160Z,4.37
2019-05-28T13:28:57.720Z,2.97
2019-05-28T13:31:26.145Z,3.87
2019-05-28T13:33:55.187Z,4.33
2019-05-28T13:36:23.691Z,4.70
2019-05-28T13:38:52.195Z,3.63
2019-05-28T13:41:21.191Z,3.70
2019-05-28T13:43:49.699Z,4.43
2019-05-28T13:46:18.190Z,3.40
2019-05-28T13:48:47.006Z,3.17
2019-05-28T13:51:15.668Z,3.60
2019-05-28T13:53:44.522Z,3.20
2019-05-28T13:56:13.004Z,3.47
2019-05-28T13:58:41.506Z,3.20
2019-05-28T14:01:09.993Z,6.30
2019-05-28T14:03:38.490Z,4.27
2019-05-28T14:06:06.987Z,3.07
2019-05-28T14:08:46.615Z,3.83
2019-05-28T14:11:04.317Z,3.60
2019-05-28T14:13:32.835Z,2.70
2019-05-28T14:16:03.966Z,3.20
2019-05-28T14:18:30.189Z,2.60
2019-05-28T14:20:59.020Z,2.93
2019-05-28T14:23:27.507Z,2.57
2019-05-28T14:25:56.173Z,2.83
2019-05-28T14:28:24.665Z,2.20
2019-05-28T14:30:59.990Z,2.20
2019-05-28T14:33:21.631Z,2.37
2019-05-28T14:35:50.145Z,2.57
2019-05-28T14:38:19.026Z,2.40
2019-05-28T14:40:47.998Z,2.97
2019-05-28T14:43:16.623Z,1.90
2019-05-28T14:45:45.138Z,2.73
2019-05-28T14:48:14.263Z,2.70
2019-05-28T14:50:43.070Z,2.53
2019-05-28T14:53:11.844Z,2.80
2019-05-28T14:55:40.485Z,2.23
2019-05-28T14:58:13.524Z,3.47
2019-05-28T15:00:38.198Z,2.17
2019-05-28T15:03:07.249Z,2.43
2019-05-28T15:05:35.747Z,2.20
2019-05-28T15:08:04.553Z,2.07
2019-05-28T15:10:33.043Z,1.57
2019-05-28T15:13:02.132Z,3.60
2019-05-28T15:15:35.931Z,2.77
2019-05-28T15:17:59.102Z,1.97
2019-05-28T15:20:27.921Z,2.43
2019-05-28T15:22:56.398Z,2.13
2019-05-28T15:25:24.902Z,4.70
2019-05-28T15:27:53.365Z,3.17
2019-05-28T15:30:21.855Z,3.70
2019-05-28T15:32:50.611Z,3.33
2019-05-28T15:35:19.104Z,1.97
2019-05-28T15:37:47.989Z,2.33
2019-05-28T15:40:16.694Z,1.60
2019-05-28T15:42:45.438Z,1.50
2019-05-28T15:45:13.990Z,3.10
2019-05-28T15:47:44.965Z,1.60
2019-05-28T15:50:11.319Z,1.90
2019-05-28T15:52:40.072Z,1.37
2019-05-28T15:55:08.645Z,1.57
2019-05-28T15:57:37.464Z,1.87
2019-05-28T16:00:06.063Z,1.37
2019-05-28T16:02:34.554Z,1.50
2019-05-28T16:05:03.082Z,1.70
2019-05-28T16:07:31.671Z,1.70
2019-05-28T16:10:00.188Z,1.43
2019-05-28T16:12:28.963Z,2.03
2019-05-28T16:14:57.449Z,1.27
2019-05-28T16:17:25.954Z,1.33
2019-05-28T16:19:54.448Z,1.80
2019-05-28T16:22:22.929Z,1.60
2019-05-28T16:24:51.973Z,1.20
2019-05-28T16:27:20.495Z,1.60
2019-05-28T16:29:49.340Z,1.70
2019-05-28T16:32:17.823Z,1.43
2019-05-28T16:34:46.330Z,1.60
2019-05-28T16:37:15.171Z,1.43
2019-05-28T16:39:47.344Z,1.10
2019-05-28T16:42:12.562Z,2.03
2019-05-28T16:44:41.095Z,1.60
2019-05-28T16:47:17.539Z,1.87
2019-05-28T16:49:38.756Z,1.70
2019-05-28T16:52:07.546Z,1.83
2019-05-28T16:54:36.021Z,1.77
2019-05-28T16:57:04.511Z,1.60
2019-05-28T16:59:33.011Z,1.47
2019-05-28T17:02:02.283Z,1.60
2019-05-28T17:04:30.783Z,1.50
2019-05-28T17:06:59.275Z,1.90
2019-05-28T17:09:27.770Z,1.40
2019-05-28T17:11:56.249Z,2.00
2019-05-28T17:14:27.147Z,1.40
2019-05-28T17:16:53.887Z,1.50
2019-05-28T17:19:22.733Z,1.47
2019-05-28T17:21:51.220Z,1.30
2019-05-28T17:24:19.731Z,1.60
2019-05-28T17:26:48.075Z,1.57
2019-05-28T17:29:16.764Z,1.63
2019-05-28T17:31:46.000Z,1.40
2019-05-28T17:34:14.837Z,1.57
2019-05-28T17:36:43.338Z,2.10
2019-05-28T17:39:11.861Z,1.70
2019-05-28T17:41:40.340Z,1.40
2019-05-28T17:44:08.844Z,1.90
2019-05-28T17:46:37.508Z,1.40
2019-05-28T17:49:05.986Z,1.50
2019-05-28T17:51:34.823Z,1.43
2019-05-28T17:54:03.331Z,1.53
2019-05-28T17:56:32.079Z,1.70
2019-05-28T17:59:00.575Z,1.53
2019-05-28T18:01:29.407Z,1.77
2019-05-28T18:03:58.054Z,1.53
2019-05-28T18:06:26.566Z,1.50
2019-05-28T18:08:55.045Z,1.20
2019-05-28T18:11:23.538Z,1.77
2019-05-28T18:13:52.318Z,1.70
2019-05-28T18:16:21.212Z,1.50
2019-05-28T18:18:49.706Z,1.73
2019-05-28T18:21:18.200Z,1.60
2019-05-28T18:23:46.711Z,1.70
2019-05-28T18:26:15.191Z,1.20
2019-05-28T18:28:43.671Z,1.40
2019-05-28T18:31:12.171Z,1.70
2019-05-28T18:33:40.911Z,1.47
2019-05-28T18:36:09.401Z,1.80
2019-05-28T18:38:43.505Z,1.33
2019-05-28T18:41:20.607Z,1.70
2019-05-28T18:43:35.195Z,1.63
2019-05-28T18:46:04.503Z,1.40
2019-05-28T18:48:32.985Z,1.50
2019-05-28T18:51:01.482Z,0.90
2019-05-28T18:53:29.978Z,1.33
2019-05-28T18:55:58.819Z,1.70
2019-05-28T18:58:27.459Z,1.37
2019-05-28T19:00:56.203Z,1.07
2019-05-28T19:03:24.705Z,1.33
2019-05-28T19:05:53.474Z,0.90
2019-05-28T19:08:22.769Z,1.27
2019-05-28T19:10:51.115Z,1.07
2019-05-28T19:13:19.932Z,1.10
2019-05-28T19:15:48.472Z,0.97
2019-05-28T19:18:17.213Z,1.13
2019-05-28T19:20:45.719Z,1.10
2019-05-28T19:23:14.484Z,1.10
2019-05-28T19:25:42.976Z,1.20
2019-05-28T19:28:11.470Z,1.20
2019-05-28T19:30:39.942Z,1.10
2019-05-28T19:33:08.430Z,1.33
2019-05-28T19:35:36.915Z,1.20
2019-05-28T19:38:05.399Z,1.27
2019-05-28T19:40:36.922Z,1.47
2019-05-28T19:43:05.558Z,1.40
2019-05-28T19:45:34.778Z,1.13
2019-05-28T19:48:03.362Z,1.00
2019-05-28T19:50:31.861Z,1.60
2019-05-28T19:53:00.683Z,1.10
2019-05-28T19:55:29.415Z,1.20
2019-05-28T19:57:58.379Z,1.30
2019-05-28T20:00:26.880Z,1.10
2019-05-28T20:02:55.637Z,1.93
2019-05-28T20:05:24.742Z,1.50
2019-05-28T20:07:53.231Z,1.43
2019-05-28T20:10:21.465Z,1.33
2019-05-28T20:12:49.960Z,1.43
2019-05-28T20:15:20.990Z,2.23
2019-05-28T20:17:48.437Z,1.07
2019-05-28T20:20:15.940Z,1.27
2019-05-28T20:22:45.702Z,1.57
2019-05-28T20:25:13.541Z,1.13
2019-05-28T20:27:42.046Z,1.00
2019-05-28T20:30:11.481Z,1.33
2019-05-28T20:32:39.289Z,1.17
2019-05-28T20:35:08.134Z,1.33
2019-05-28T20:37:36.853Z,2.53
2019-05-28T20:40:05.950Z,1.30
2019-05-28T20:42:35.850Z,1.30
2019-05-28T20:45:04.240Z,1.33
2019-05-28T20:47:31.685Z,1.27
2019-05-28T20:50:00.738Z,1.50
2019-05-28T20:52:29.018Z,1.00
2019-05-28T20:54:57.874Z,1.73
